sensor_id;sensor_type;location;lat;lon;timestamp;temperature;humidity
77519;DHT22;66629;47.346;19.038;2023-01-15T00:01:20;1.52;98.39
77519;DHT22;66629;47.346;19.038;2023-01-15T00:03:46;1.51;97.97
77519;DHT22;66629;47.346;19.038;2023-01-15T00:06:14;1.24;98.55
77519;DHT22;66629;47.346;19.038;2023-01-15T00:08:40;1.22;98.48
77519;DHT22;66629;47.346;19.038;2023-01-15T00:11:05;1.20;98.51
77519;DHT22;66629;47.346;19.038;2023-01-15T00:13:31;1.13;98.99
77519;DHT22;66629;47.346;19.038;2023-01-15T00:16:07;1.17;99.12
77519;DHT22;66629;47.346;19.038;2023-01-15T00:18:34;1.15;98.60
77519;DHT22;66629;47.346;19.038;2023-01-15T00:21:05;1.10;98.58
77519;DHT22;66629;47.346;19.038;2023-01-15T00:23:31;1.09;98.62
77519;DHT22;66629;47.346;19.038;2023-01-15T00:26:17;1.09;99.31
77519;DHT22;66629;47.346;19.038;2023-01-15T00:29:01;1.06;98.80
77519;DHT22;66629;47.346;19.038;2023-01-15T00:31:27;1.07;99.08
77519;DHT22;66629;47.346;19.038;2023-01-15T00:33:53;1.06;98.78
77519;DHT22;66629;47.346;19.038;2023-01-15T00:36:18;1.06;98.81
77519;DHT22;66629;47.346;19.038;2023-01-15T00:38:44;0.99;99.08
77519;DHT22;66629;47.346;19.038;2023-01-15T00:41:09;1.02;98.87
77519;DHT22;66629;47.346;19.038;2023-01-15T00:43:35;1.00;98.96
77519;DHT22;66629;47.346;19.038;2023-01-15T00:46:00;1.00;99.12
77519;DHT22;66629;47.346;19.038;2023-01-15T00:48:25;1.06;98.93
77519;DHT22;66629;47.346;19.038;2023-01-15T00:50:51;0.99;98.70
77519;DHT22;66629;47.346;19.038;2023-01-15T00:53:16;1.00;99.02
77519;DHT22;66629;47.346;19.038;2023-01-15T00:55:42;1.02;99.21
77519;DHT22;66629;47.346;19.038;2023-01-15T00:58:08;1.02;99.08
77519;DHT22;66629;47.346;19.038;2023-01-15T01:00:33;1.03;98.95
77519;DHT22;66629;47.346;19.038;2023-01-15T01:02:59;1.10;98.67
77519;DHT22;66629;47.346;19.038;2023-01-15T01:05:24;1.04;98.88
77519;DHT22;66629;47.346;19.038;2023-01-15T01:07:51;0.96;98.81
77519;DHT22;66629;47.346;19.038;2023-01-15T01:10:16;0.92;99.06
77519;DHT22;66629;47.346;19.038;2023-01-15T01:12:42;0.96;98.77
77519;DHT22;66629;47.346;19.038;2023-01-15T01:15:08;0.88;99.21
77519;DHT22;66629;47.346;19.038;2023-01-15T01:17:37;0.92;99.17
77519;DHT22;66629;47.346;19.038;2023-01-15T01:20:04;0.93;99.02
77519;DHT22;66629;47.346;19.038;2023-01-15T01:22:29;0.96;98.83
77519;DHT22;66629;47.346;19.038;2023-01-15T01:24:57;0.97;98.94
77519;DHT22;66629;47.346;19.038;2023-01-15T01:27:23;1.00;99.01
77519;DHT22;66629;47.346;19.038;2023-01-15T01:29:49;0.96;98.99
77519;DHT22;66629;47.346;19.038;2023-01-15T01:32:14;0.95;99.00
77519;DHT22;66629;47.346;19.038;2023-01-15T01:34:39;0.95;99.18
77519;DHT22;66629;47.346;19.038;2023-01-15T01:37:05;0.95;99.27
77519;DHT22;66629;47.346;19.038;2023-01-15T01:39:30;0.93;99.03
77519;DHT22;66629;47.346;19.038;2023-01-15T01:41:56;0.95;99.16
77519;DHT22;66629;47.346;19.038;2023-01-15T01:47:05;1.03;99.06
77519;DHT22;66629;47.346;19.038;2023-01-15T01:49:32;1.03;98.91
77519;DHT22;66629;47.346;19.038;2023-01-15T01:52:03;1.09;98.78
77519;DHT22;66629;47.346;19.038;2023-01-15T01:54:30;1.09;98.79
77519;DHT22;66629;47.346;19.038;2023-01-15T01:56:58;1.04;98.85
77519;DHT22;66629;47.346;19.038;2023-01-15T01:59:24;1.03;99.00
77519;DHT22;66629;47.346;19.038;2023-01-15T02:01:51;1.00;98.79
77519;DHT22;66629;47.346;19.038;2023-01-15T02:04:19;1.03;98.89
77519;DHT22;66629;47.346;19.038;2023-01-15T02:06:45;0.99;98.60
77519;DHT22;66629;47.346;19.038;2023-01-15T02:09:11;1.00;99.14
77519;DHT22;66629;47.346;19.038;2023-01-15T02:11:36;0.97;98.92
77519;DHT22;66629;47.346;19.038;2023-01-15T02:14:12;0.95;98.99
77519;DHT22;66629;47.346;19.038;2023-01-15T02:16:51;0.96;99.13
77519;DHT22;66629;47.346;19.038;2023-01-15T02:19:44;0.93;99.06
77519;DHT22;66629;47.346;19.038;2023-01-15T02:27:33;0.89;99.30
77519;DHT22;66629;47.346;19.038;2023-01-15T02:30:16;0.82;99.81
77519;DHT22;66629;47.346;19.038;2023-01-15T02:33:36;0.85;99.54
77519;DHT22;66629;47.346;19.038;2023-01-15T02:35:43;0.85;99.69
77519;DHT22;66629;47.346;19.038;2023-01-15T02:38:11;0.91;99.64
77519;DHT22;66629;47.346;19.038;2023-01-15T02:40:38;0.96;99.55
77519;DHT22;66629;47.346;19.038;2023-01-15T02:43:06;0.99;99.44
77519;DHT22;66629;47.346;19.038;2023-01-15T02:45:35;0.95;99.26
77519;DHT22;66629;47.346;19.038;2023-01-15T02:48:04;0.95;99.60
77519;DHT22;66629;47.346;19.038;2023-01-15T02:50:35;0.96;99.50
77519;DHT22;66629;47.346;19.038;2023-01-15T02:53:06;0.96;99.31
77519;DHT22;66629;47.346;19.038;2023-01-15T02:55:36;0.99;99.37
77519;DHT22;66629;47.346;19.038;2023-01-15T02:58:06;0.99;99.28
77519;DHT22;66629;47.346;19.038;2023-01-15T03:00:37;1.00;99.23
77519;DHT22;66629;47.346;19.038;2023-01-15T03:08:27;1.07;99.25
77519;DHT22;66629;47.346;19.038;2023-01-15T03:11:04;1.17;98.73
77519;DHT22;66629;47.346;19.038;2023-01-15T03:13:59;1.06;98.54
77519;DHT22;66629;47.346;19.038;2023-01-15T03:16:37;1.13;98.67
77519;DHT22;66629;47.346;19.038;2023-01-15T03:21:49;1.09;99.08
77519;DHT22;66629;47.346;19.038;2023-01-15T03:24:28;1.09;98.91
77519;DHT22;66629;47.346;19.038;2023-01-15T03:26:54;1.12;99.03
77519;DHT22;66629;47.346;19.038;2023-01-15T03:29:22;1.07;99.14
77519;DHT22;66629;47.346;19.038;2023-01-15T03:31:49;1.06;98.98
77519;DHT22;66629;47.346;19.038;2023-01-15T03:34:15;0.99;99.33
77519;DHT22;66629;47.346;19.038;2023-01-15T03:36:40;1.03;99.17
77519;DHT22;66629;47.346;19.038;2023-01-15T03:39:06;1.15;99.02
77519;DHT22;66629;47.346;19.038;2023-01-15T03:41:48;1.07;99.14
77519;DHT22;66629;47.346;19.038;2023-01-15T03:49:24;1.09;99.00
77519;DHT22;66629;47.346;19.038;2023-01-15T03:54:49;1.03;99.16
77519;DHT22;66629;47.346;19.038;2023-01-15T03:57:39;1.03;99.12
77519;DHT22;66629;47.346;19.038;2023-01-15T04:00:16;1.00;99.15
77519;DHT22;66629;47.346;19.038;2023-01-15T04:02:43;1.06;99.04
77519;DHT22;66629;47.346;19.038;2023-01-15T04:05:09;1.06;99.11
77519;DHT22;66629;47.346;19.038;2023-01-15T04:07:34;1.07;98.89
77519;DHT22;66629;47.346;19.038;2023-01-15T04:10:00;1.04;99.17
77519;DHT22;66629;47.346;19.038;2023-01-15T04:12:25;1.04;99.32
77519;DHT22;66629;47.346;19.038;2023-01-15T04:14:52;1.07;99.10
77519;DHT22;66629;47.346;19.038;2023-01-15T04:17:17;1.09;98.91
77519;DHT22;66629;47.346;19.038;2023-01-15T04:19:43;1.12;99.04
77519;DHT22;66629;47.346;19.038;2023-01-15T04:22:09;1.16;98.95
77519;DHT22;66629;47.346;19.038;2023-01-15T04:24:35;1.13;98.89
77519;DHT22;66629;47.346;19.038;2023-01-15T04:27:01;1.19;98.74
77519;DHT22;66629;47.346;19.038;2023-01-15T04:29:26;1.22;98.55
77519;DHT22;66629;47.346;19.038;2023-01-15T04:31:52;1.17;98.70
77519;DHT22;66629;47.346;19.038;2023-01-15T04:34:21;1.15;98.89
77519;DHT22;66629;47.346;19.038;2023-01-15T04:36:47;1.22;98.53
77519;DHT22;66629;47.346;19.038;2023-01-15T04:39:12;1.13;98.65
77519;DHT22;66629;47.346;19.038;2023-01-15T04:41:38;1.22;98.50
77519;DHT22;66629;47.346;19.038;2023-01-15T04:44:22;1.26;98.65
77519;DHT22;66629;47.346;19.038;2023-01-15T04:46:52;1.26;98.61
77519;DHT22;66629;47.346;19.038;2023-01-15T04:49:17;1.22;98.95
77519;DHT22;66629;47.346;19.038;2023-01-15T04:51:43;1.19;99.06
77519;DHT22;66629;47.346;19.038;2023-01-15T04:54:11;1.17;99.06
77519;DHT22;66629;47.346;19.038;2023-01-15T04:56:40;1.23;99.11
77519;DHT22;66629;47.346;19.038;2023-01-15T04:59:07;1.28;98.95
77519;DHT22;66629;47.346;19.038;2023-01-15T05:01:32;1.23;99.17
77519;DHT22;66629;47.346;19.038;2023-01-15T05:03:59;1.22;99.26
77519;DHT22;66629;47.346;19.038;2023-01-15T05:06:25;1.26;99.32
77519;DHT22;66629;47.346;19.038;2023-01-15T05:08:51;1.27;99.31
77519;DHT22;66629;47.346;19.038;2023-01-15T05:11:16;1.30;99.20
77519;DHT22;66629;47.346;19.038;2023-01-15T05:13:42;1.31;99.29
77519;DHT22;66629;47.346;19.038;2023-01-15T05:16:11;1.38;99.29
77519;DHT22;66629;47.346;19.038;2023-01-15T05:18:38;1.40;98.98
77519;DHT22;66629;47.346;19.038;2023-01-15T05:21:04;1.40;99.07
77519;DHT22;66629;47.346;19.038;2023-01-15T05:23:29;1.38;99.16
77519;DHT22;66629;47.346;19.038;2023-01-15T05:25:55;1.38;99.38
77519;DHT22;66629;47.346;19.038;2023-01-15T05:28:20;1.44;99.55
77519;DHT22;66629;47.346;19.038;2023-01-15T05:30:46;1.50;99.34
77519;DHT22;66629;47.346;19.038;2023-01-15T05:33:11;1.50;99.30
77519;DHT22;66629;47.346;19.038;2023-01-15T05:35:36;1.52;99.45
77519;DHT22;66629;47.346;19.038;2023-01-15T05:38:02;1.51;99.39
77519;DHT22;66629;47.346;19.038;2023-01-15T05:40:30;1.56;99.66
77519;DHT22;66629;47.346;19.038;2023-01-15T05:42:56;1.54;99.79
77519;DHT22;66629;47.346;19.038;2023-01-15T05:45:21;1.58;99.59
77519;DHT22;66629;47.346;19.038;2023-01-15T05:47:47;1.61;99.69
77519;DHT22;66629;47.346;19.038;2023-01-15T05:50:12;1.63;99.71
77519;DHT22;66629;47.346;19.038;2023-01-15T05:52:38;1.70;99.61
77519;DHT22;66629;47.346;19.038;2023-01-15T05:55:03;1.70;99.41
77519;DHT22;66629;47.346;19.038;2023-01-15T05:57:29;1.72;99.53
77519;DHT22;66629;47.346;19.038;2023-01-15T05:59:56;1.78;99.42
77519;DHT22;66629;47.346;19.038;2023-01-15T06:02:22;1.79;99.43
77519;DHT22;66629;47.346;19.038;2023-01-15T06:04:47;1.83;99.32
77519;DHT22;66629;47.346;19.038;2023-01-15T06:07:13;1.86;99.56
77519;DHT22;66629;47.346;19.038;2023-01-15T06:09:38;1.86;99.58
77519;DHT22;66629;47.346;19.038;2023-01-15T06:12:04;1.94;99.49
77519;DHT22;66629;47.346;19.038;2023-01-15T06:14:29;1.94;99.41
77519;DHT22;66629;47.346;19.038;2023-01-15T06:16:55;2.00;99.54
77519;DHT22;66629;47.346;19.038;2023-01-15T06:19:20;2.03;99.38
77519;DHT22;66629;47.346;19.038;2023-01-15T06:21:45;2.06;99.43
77519;DHT22;66629;47.346;19.038;2023-01-15T06:24:11;2.04;99.45
77519;DHT22;66629;47.346;19.038;2023-01-15T06:26:37;2.13;99.37
77519;DHT22;66629;47.346;19.038;2023-01-15T06:29:03;2.14;99.18
77519;DHT22;66629;47.346;19.038;2023-01-15T06:31:29;2.20;99.19
77519;DHT22;66629;47.346;19.038;2023-01-15T06:33:54;2.22;99.09
77519;DHT22;66629;47.346;19.038;2023-01-15T06:36:22;2.22;99.25
77519;DHT22;66629;47.346;19.038;2023-01-15T06:38:49;2.34;99.06
77519;DHT22;66629;47.346;19.038;2023-01-15T06:41:22;2.35;98.90
77519;DHT22;66629;47.346;19.038;2023-01-15T06:44:12;2.38;99.01
77519;DHT22;66629;47.346;19.038;2023-01-15T06:46:56;2.38;99.06
77519;DHT22;66629;47.346;19.038;2023-01-15T06:49:40;2.48;98.79
77519;DHT22;66629;47.346;19.038;2023-01-15T06:52:06;2.55;98.77
77519;DHT22;66629;47.346;19.038;2023-01-15T06:54:32;2.50;98.63
77519;DHT22;66629;47.346;19.038;2023-01-15T06:56:57;2.57;98.55
77519;DHT22;66629;47.346;19.038;2023-01-15T06:59:23;2.59;98.46
77519;DHT22;66629;47.346;19.038;2023-01-15T07:01:48;2.66;98.24
77519;DHT22;66629;47.346;19.038;2023-01-15T07:04:14;2.67;98.26
77519;DHT22;66629;47.346;19.038;2023-01-15T07:06:39;2.72;98.09
77519;DHT22;66629;47.346;19.038;2023-01-15T07:09:05;2.79;98.10
77519;DHT22;66629;47.346;19.038;2023-01-15T07:11:31;2.77;97.88
77519;DHT22;66629;47.346;19.038;2023-01-15T07:13:57;2.80;97.90
77519;DHT22;66629;47.346;19.038;2023-01-15T07:16:32;2.81;97.87
77519;DHT22;66629;47.346;19.038;2023-01-15T07:18:58;2.84;97.81
77519;DHT22;66629;47.346;19.038;2023-01-15T07:21:24;2.87;97.92
77519;DHT22;66629;47.346;19.038;2023-01-15T07:23:49;2.91;97.94
77519;DHT22;66629;47.346;19.038;2023-01-15T07:26:14;2.94;97.91
77519;DHT22;66629;47.346;19.038;2023-01-15T07:28:40;3.03;97.74
77519;DHT22;66629;47.346;19.038;2023-01-15T07:31:05;3.00;97.41
77519;DHT22;66629;47.346;19.038;2023-01-15T07:33:31;3.05;97.60
77519;DHT22;66629;47.346;19.038;2023-01-15T07:35:56;3.08;97.64
77519;DHT22;66629;47.346;19.038;2023-01-15T07:38:22;3.09;97.62
77519;DHT22;66629;47.346;19.038;2023-01-15T07:40:48;3.11;97.65
77519;DHT22;66629;47.346;19.038;2023-01-15T07:43:33;3.15;97.62
77519;DHT22;66629;47.346;19.038;2023-01-15T07:46:17;3.18;97.65
77519;DHT22;66629;47.346;19.038;2023-01-15T07:49:10;3.25;97.65
77519;DHT22;66629;47.346;19.038;2023-01-15T07:51:54;3.28;97.36
77519;DHT22;66629;47.346;19.038;2023-01-15T07:54:20;3.35;97.13
77519;DHT22;66629;47.346;19.038;2023-01-15T07:56:45;3.38;97.36
77519;DHT22;66629;47.346;19.038;2023-01-15T07:59:11;3.36;97.30
77519;DHT22;66629;47.346;19.038;2023-01-15T08:01:36;3.40;96.96
77519;DHT22;66629;47.346;19.038;2023-01-15T08:04:02;3.47;96.75
77519;DHT22;66629;47.346;19.038;2023-01-15T08:06:27;3.54;96.57
77519;DHT22;66629;47.346;19.038;2023-01-15T08:08:53;3.53;96.46
77519;DHT22;66629;47.346;19.038;2023-01-15T08:11:18;3.56;96.63
77519;DHT22;66629;47.346;19.038;2023-01-15T08:14:02;3.63;96.78
77519;DHT22;66629;47.346;19.038;2023-01-15T08:16:46;3.66;96.28
77519;DHT22;66629;47.346;19.038;2023-01-15T08:19:11;3.69;96.29
77519;DHT22;66629;47.346;19.038;2023-01-15T08:21:36;3.74;95.99
77519;DHT22;66629;47.346;19.038;2023-01-15T08:24:02;3.77;95.76
77519;DHT22;66629;47.346;19.038;2023-01-15T08:26:27;3.82;95.92
77519;DHT22;66629;47.346;19.038;2023-01-15T08:28:53;3.95;97.36
77519;DHT22;66629;47.346;19.038;2023-01-15T08:31:18;4.16;95.61
77519;DHT22;66629;47.346;19.038;2023-01-15T08:33:44;4.22;94.52
77519;DHT22;66629;47.346;19.038;2023-01-15T08:36:09;4.20;93.99
77519;DHT22;66629;47.346;19.038;2023-01-15T08:38:35;4.07;94.21
77519;DHT22;66629;47.346;19.038;2023-01-15T08:41:00;4.12;94.36
77519;DHT22;66629;47.346;19.038;2023-01-15T08:43:30;4.16;94.27
77519;DHT22;66629;47.346;19.038;2023-01-15T08:46:01;4.20;94.18
77519;DHT22;66629;47.346;19.038;2023-01-15T08:48:28;4.29;94.19
77519;DHT22;66629;47.346;19.038;2023-01-15T08:50:55;4.30;93.68
77519;DHT22;66629;47.346;19.038;2023-01-15T08:53:20;4.34;93.95
77519;DHT22;66629;47.346;19.038;2023-01-15T08:55:47;4.33;93.64
77519;DHT22;66629;47.346;19.038;2023-01-15T08:58:13;4.36;93.03
77519;DHT22;66629;47.346;19.038;2023-01-15T09:00:38;4.40;93.57
77519;DHT22;66629;47.346;19.038;2023-01-15T09:03:04;4.48;92.93
77519;DHT22;66629;47.346;19.038;2023-01-15T09:05:30;4.47;93.05
77519;DHT22;66629;47.346;19.038;2023-01-15T09:07:55;4.54;93.07
77519;DHT22;66629;47.346;19.038;2023-01-15T09:10:21;4.57;93.38
77519;DHT22;66629;47.346;19.038;2023-01-15T09:12:47;4.58;92.97
77519;DHT22;66629;47.346;19.038;2023-01-15T09:15:12;4.58;92.43
77519;DHT22;66629;47.346;19.038;2023-01-15T09:17:38;4.62;92.21
77519;DHT22;66629;47.346;19.038;2023-01-15T09:20:07;4.69;92.53
77519;DHT22;66629;47.346;19.038;2023-01-15T09:22:33;4.71;91.90
77519;DHT22;66629;47.346;19.038;2023-01-15T09:24:58;4.78;91.30
77519;DHT22;66629;47.346;19.038;2023-01-15T09:27:26;4.74;91.03
77519;DHT22;66629;47.346;19.038;2023-01-15T09:29:52;4.75;91.46
77519;DHT22;66629;47.346;19.038;2023-01-15T09:32:17;4.83;91.83
77519;DHT22;66629;47.346;19.038;2023-01-15T09:34:43;4.76;91.37
77519;DHT22;66629;47.346;19.038;2023-01-15T09:37:08;4.83;91.82
77519;DHT22;66629;47.346;19.038;2023-01-15T09:39:36;4.76;91.54
77519;DHT22;66629;47.346;19.038;2023-01-15T09:55:37;5.05;90.64
77519;DHT22;66629;47.346;19.038;2023-01-15T09:58:05;5.19;90.69
77519;DHT22;66629;47.346;19.038;2023-01-15T10:00:39;5.22;89.85
77519;DHT22;66629;47.346;19.038;2023-01-15T10:08:31;5.69;88.48
77519;DHT22;66629;47.346;19.038;2023-01-15T10:13:52;5.51;88.67
77519;DHT22;66629;47.346;19.038;2023-01-15T10:16:22;5.70;87.49
77519;DHT22;66629;47.346;19.038;2023-01-15T10:18:49;5.69;87.31
77519;DHT22;66629;47.346;19.038;2023-01-15T10:26:31;6.13;85.64
77519;DHT22;66629;47.346;19.038;2023-01-15T10:37:11;6.39;84.02
77519;DHT22;66629;47.346;19.038;2023-01-15T10:45:16;6.29;83.94
77519;DHT22;66629;47.346;19.038;2023-01-15T10:47:46;6.31;84.44
77519;DHT22;66629;47.346;19.038;2023-01-15T10:50:20;6.48;84.11
77519;DHT22;66629;47.346;19.038;2023-01-15T10:52:49;6.66;83.00
77519;DHT22;66629;47.346;19.038;2023-01-15T10:55:37;6.60;82.84
77519;DHT22;66629;47.346;19.038;2023-01-15T11:01:02;6.36;84.02
77519;DHT22;66629;47.346;19.038;2023-01-15T11:03:41;6.35;84.30
77519;DHT22;66629;47.346;19.038;2023-01-15T11:06:15;6.42;84.49
77519;DHT22;66629;47.346;19.038;2023-01-15T11:08:44;6.31;84.18
77519;DHT22;66629;47.346;19.038;2023-01-15T11:14:08;6.46;84.19
77519;DHT22;66629;47.346;19.038;2023-01-15T11:16:52;6.53;84.23
77519;DHT22;66629;47.346;19.038;2023-01-15T11:19:39;6.52;84.00
77519;DHT22;66629;47.346;19.038;2023-01-15T11:22:13;6.49;84.13
77519;DHT22;66629;47.346;19.038;2023-01-15T11:24:51;6.50;83.90
77519;DHT22;66629;47.346;19.038;2023-01-15T11:27:20;6.66;84.09
77519;DHT22;66629;47.346;19.038;2023-01-15T11:29:53;6.75;83.51
77519;DHT22;66629;47.346;19.038;2023-01-15T11:32:24;6.73;83.27
77519;DHT22;66629;47.346;19.038;2023-01-15T11:37:27;6.67;83.28
77519;DHT22;66629;47.346;19.038;2023-01-15T11:39:57;6.76;83.46
77519;DHT22;66629;47.346;19.038;2023-01-15T11:42:28;6.72;83.35
77519;DHT22;66629;47.346;19.038;2023-01-15T11:45:14;6.79;83.37
77519;DHT22;66629;47.346;19.038;2023-01-15T11:47:58;6.84;83.10
77519;DHT22;66629;47.346;19.038;2023-01-15T11:50:50;6.94;83.58
77519;DHT22;66629;47.346;19.038;2023-01-15T11:53:20;7.02;82.72
77519;DHT22;66629;47.346;19.038;2023-01-15T11:55:57;7.07;82.76
77519;DHT22;66629;47.346;19.038;2023-01-15T11:58:38;7.23;82.86
77519;DHT22;66629;47.346;19.038;2023-01-15T12:01:04;7.29;82.30
77519;DHT22;66629;47.346;19.038;2023-01-15T12:03:31;7.32;81.86
77519;DHT22;66629;47.346;19.038;2023-01-15T12:06:09;7.36;81.63
77519;DHT22;66629;47.346;19.038;2023-01-15T12:16:47;7.52;80.51
77519;DHT22;66629;47.346;19.038;2023-01-15T12:30:24;7.64;78.27
77519;DHT22;66629;47.346;19.038;2023-01-15T12:33:21;7.66;79.06
77519;DHT22;66629;47.346;19.038;2023-01-15T12:35:52;7.60;78.50
77519;DHT22;66629;47.346;19.038;2023-01-15T12:38:33;7.61;78.34
77519;DHT22;66629;47.346;19.038;2023-01-15T12:41:11;7.64;78.03
77519;DHT22;66629;47.346;19.038;2023-01-15T12:43:38;7.71;78.23
77519;DHT22;66629;47.346;19.038;2023-01-15T12:46:25;7.82;78.12
77519;DHT22;66629;47.346;19.038;2023-01-15T12:49:03;7.95;78.38
77519;DHT22;66629;47.346;19.038;2023-01-15T12:51:46;7.96;77.33
77519;DHT22;66629;47.346;19.038;2023-01-15T12:54:18;7.99;77.33
77519;DHT22;66629;47.346;19.038;2023-01-15T13:05:28;7.95;77.23
77519;DHT22;66629;47.346;19.038;2023-01-15T13:08:05;7.94;77.34
77519;DHT22;66629;47.346;19.038;2023-01-15T13:10:36;7.89;77.02
77519;DHT22;66629;47.346;19.038;2023-01-15T13:20:56;8.03;77.13
77519;DHT22;66629;47.346;19.038;2023-01-15T13:26:06;8.09;77.03
77519;DHT22;66629;47.346;19.038;2023-01-15T13:29:58;8.07;76.62
77519;DHT22;66629;47.346;19.038;2023-01-15T13:34:45;8.12;76.72
77519;DHT22;66629;47.346;19.038;2023-01-15T13:37:19;8.12;76.64
77519;DHT22;66629;47.346;19.038;2023-01-15T13:39:47;8.07;76.57
77519;DHT22;66629;47.346;19.038;2023-01-15T13:42:22;8.07;76.88
77519;DHT22;66629;47.346;19.038;2023-01-15T13:45:02;8.05;77.25
77519;DHT22;66629;47.346;19.038;2023-01-15T13:47:31;8.03;77.63
77519;DHT22;66629;47.346;19.038;2023-01-15T13:50:02;8.05;77.70
77519;DHT22;66629;47.346;19.038;2023-01-15T13:52:33;8.05;77.67
77519;DHT22;66629;47.346;19.038;2023-01-15T13:55:08;7.95;78.00
77519;DHT22;66629;47.346;19.038;2023-01-15T13:57:39;7.94;78.32
77519;DHT22;66629;47.346;19.038;2023-01-15T14:00:26;7.89;78.25
77519;DHT22;66629;47.346;19.038;2023-01-15T14:02:55;7.88;78.56
77519;DHT22;66629;47.346;19.038;2023-01-15T14:07:51;7.85;78.96
77519;DHT22;66629;47.346;19.038;2023-01-15T14:21:10;7.73;78.87
77519;DHT22;66629;47.346;19.038;2023-01-15T14:23:51;7.71;78.90
77519;DHT22;66629;47.346;19.038;2023-01-15T14:29:23;7.69;78.08
77519;DHT22;66629;47.346;19.038;2023-01-15T14:32:06;7.67;78.53
77519;DHT22;66629;47.346;19.038;2023-01-15T14:34:33;7.67;78.16
77519;DHT22;66629;47.346;19.038;2023-01-15T14:37:24;7.69;78.01
77519;DHT22;66629;47.346;19.038;2023-01-15T14:39:54;7.67;78.37
77519;DHT22;66629;47.346;19.038;2023-01-15T14:45:07;7.63;78.89
77519;DHT22;66629;47.346;19.038;2023-01-15T14:47:47;7.56;79.34
77519;DHT22;66629;47.346;19.038;2023-01-15T14:50:39;7.56;79.51
77519;DHT22;66629;47.346;19.038;2023-01-15T14:55:50;7.52;80.06
77519;DHT22;66629;47.346;19.038;2023-01-15T15:00:59;7.45;80.55
77519;DHT22;66629;47.346;19.038;2023-01-15T15:03:33;7.43;80.84
77519;DHT22;66629;47.346;19.038;2023-01-15T15:05:59;7.45;80.96
77519;DHT22;66629;47.346;19.038;2023-01-15T15:08:29;7.46;81.13
77519;DHT22;66629;47.346;19.038;2023-01-15T15:10:57;7.42;81.46
77519;DHT22;66629;47.346;19.038;2023-01-15T15:13:35;7.36;81.89
77519;DHT22;66629;47.346;19.038;2023-01-15T15:16:19;7.37;82.11
77519;DHT22;66629;47.346;19.038;2023-01-15T15:18:56;7.37;81.78
77519;DHT22;66629;47.346;19.038;2023-01-15T15:21:36;7.37;82.04
77519;DHT22;66629;47.346;19.038;2023-01-15T15:26:40;7.36;81.85
77519;DHT22;66629;47.346;19.038;2023-01-15T15:29:14;7.30;81.77
77519;DHT22;66629;47.346;19.038;2023-01-15T15:31:47;7.33;81.43
77519;DHT22;66629;47.346;19.038;2023-01-15T15:34:25;7.30;81.90
77519;DHT22;66629;47.346;19.038;2023-01-15T15:36:51;7.40;81.38
77519;DHT22;66629;47.346;19.038;2023-01-15T15:39:27;7.33;81.47
77519;DHT22;66629;47.346;19.038;2023-01-15T15:41:54;7.35;81.50
77519;DHT22;66629;47.346;19.038;2023-01-15T15:44:50;7.28;81.56
77519;DHT22;66629;47.346;19.038;2023-01-15T15:47:37;7.28;81.27
77519;DHT22;66629;47.346;19.038;2023-01-15T15:50:27;7.29;81.44
77519;DHT22;66629;47.346;19.038;2023-01-15T15:52:54;7.29;81.31
77519;DHT22;66629;47.346;19.038;2023-01-15T15:55:21;7.32;81.25
77519;DHT22;66629;47.346;19.038;2023-01-15T15:57:51;7.32;81.03
77519;DHT22;66629;47.346;19.038;2023-01-15T16:00:20;7.29;81.18
77519;DHT22;66629;47.346;19.038;2023-01-15T16:02:48;7.29;81.23
77519;DHT22;66629;47.346;19.038;2023-01-15T16:05:24;7.30;81.12
77519;DHT22;66629;47.346;19.038;2023-01-15T16:07:51;7.30;80.80
77519;DHT22;66629;47.346;19.038;2023-01-15T16:10:28;7.30;80.85
77519;DHT22;66629;47.346;19.038;2023-01-15T16:12:57;7.29;80.95
77519;DHT22;66629;47.346;19.038;2023-01-15T16:15:30;7.25;81.15
77519;DHT22;66629;47.346;19.038;2023-01-15T16:17:57;7.30;80.71
77519;DHT22;66629;47.346;19.038;2023-01-15T16:20:24;7.25;81.30
77519;DHT22;66629;47.346;19.038;2023-01-15T16:25:29;7.22;81.36
77519;DHT22;66629;47.346;19.038;2023-01-15T16:27:57;7.22;81.55
77519;DHT22;66629;47.346;19.038;2023-01-15T16:30:23;7.18;81.81
77519;DHT22;66629;47.346;19.038;2023-01-15T16:32:50;7.16;81.83
77519;DHT22;66629;47.346;19.038;2023-01-15T16:35:23;7.16;82.05
77519;DHT22;66629;47.346;19.038;2023-01-15T16:37:53;7.14;82.14
77519;DHT22;66629;47.346;19.038;2023-01-15T16:40:31;7.16;81.94
77519;DHT22;66629;47.346;19.038;2023-01-15T16:43:13;7.12;82.05
77519;DHT22;66629;47.346;19.038;2023-01-15T16:46:01;7.11;82.13
77519;DHT22;66629;47.346;19.038;2023-01-15T16:48:32;7.09;82.33
77519;DHT22;66629;47.346;19.038;2023-01-15T16:51:32;7.11;82.68
77519;DHT22;66629;47.346;19.038;2023-01-15T16:54:03;7.04;82.83
77519;DHT22;66629;47.346;19.038;2023-01-15T16:59:03;7.00;82.78
77519;DHT22;66629;47.346;19.038;2023-01-15T17:01:34;7.02;82.95
77519;DHT22;66629;47.346;19.038;2023-01-15T17:04:01;6.98;83.53
77519;DHT22;66629;47.346;19.038;2023-01-15T17:06:28;6.97;83.57
77519;DHT22;66629;47.346;19.038;2023-01-15T17:08:55;6.97;83.83
77519;DHT22;66629;47.346;19.038;2023-01-15T17:11:27;6.95;83.92
77519;DHT22;66629;47.346;19.038;2023-01-15T17:14:26;6.91;84.16
77519;DHT22;66629;47.346;19.038;2023-01-15T17:17:22;6.93;84.28
77519;DHT22;66629;47.346;19.038;2023-01-15T17:19:49;6.93;84.75
77519;DHT22;66629;47.346;19.038;2023-01-15T17:22:25;6.86;84.67
77519;DHT22;66629;47.346;19.038;2023-01-15T17:24:57;6.88;84.75
77519;DHT22;66629;47.346;19.038;2023-01-15T17:27:24;6.87;85.10
77519;DHT22;66629;47.346;19.038;2023-01-15T17:29:50;6.87;84.92
77519;DHT22;66629;47.346;19.038;2023-01-15T17:32:28;6.87;85.15
77519;DHT22;66629;47.346;19.038;2023-01-15T17:34:54;6.87;85.46
77519;DHT22;66629;47.346;19.038;2023-01-15T17:37:19;6.84;85.46
77519;DHT22;66629;47.346;19.038;2023-01-15T17:39:45;6.84;85.52
77519;DHT22;66629;47.346;19.038;2023-01-15T17:42:18;6.81;85.67
77519;DHT22;66629;47.346;19.038;2023-01-15T17:44:44;6.79;86.36
77519;DHT22;66629;47.346;19.038;2023-01-15T17:47:10;6.73;86.94
77519;DHT22;66629;47.346;19.038;2023-01-15T17:49:37;6.69;87.63
77519;DHT22;66629;47.346;19.038;2023-01-15T17:52:07;6.76;87.17
77519;DHT22;66629;47.346;19.038;2023-01-15T17:54:37;6.67;87.42
77519;DHT22;66629;47.346;19.038;2023-01-15T17:57:21;6.66;88.03
77519;DHT22;66629;47.346;19.038;2023-01-15T18:00:05;6.63;88.31
77519;DHT22;66629;47.346;19.038;2023-01-15T18:02:49;6.62;88.13
77519;DHT22;66629;47.346;19.038;2023-01-15T18:05:33;6.54;88.60
77519;DHT22;66629;47.346;19.038;2023-01-15T18:08:04;6.56;88.05
77519;DHT22;66629;47.346;19.038;2023-01-15T18:10:32;6.56;88.31
77519;DHT22;66629;47.346;19.038;2023-01-15T18:12:58;6.56;88.71
77519;DHT22;66629;47.346;19.038;2023-01-15T18:15:25;6.62;88.20
77519;DHT22;66629;47.346;19.038;2023-01-15T18:17:51;6.62;88.66